Main page
METAR-TAF:

METAR-TAF

Airports :

Nawabshah Airport

Nawabshah, Pakistan

latitude: 26-15N, longitude: 068-22E, elevation: 37 m

Current weather observation

The report was made 39 minutes ago, at 06:59 UTC
Wind 2 kt from the Southwest
Temperature 39°C
Humidity 40%
Pressure 996 hPa
haze

METAR: OPNH 300659Z 23002KT 5000M HZ NSC 39/23 Q0996 NOSIG

Time: 12:38 (07:38 UTC)

Forecast

The report was made 4 hours and 8 minutes ago, at 03:30 UTC
Forecast valid from 30 at 06 UTC to 31 at 12 UTC
Wind 8 kt from the South with gusts up to 18 kt
Visibility: 4000 m
Scattered clouds at a height of 4000 ft
haze
Becoming
from 30 at 15 UTC to 30 at 17 UTC
Wind 7 kt from the South
Visibility: 4000 m
Scattered clouds at a height of 3000 ft
haze
Temporary
from 31 at 00 UTC to 31 at 06 UTC
Wind 6 kt from the South
Visibility: 3000 m
Scattered clouds at a height of 3000 ft
haze

TAF: OPNH 300330Z 3006/3112 18008G18KT 4000 HZ SCT040 BECMG 3015/3017 18007KT 4000 HZ SCT030 TEMPO 3100/3106 18006KT 3000 HZ SCT030

Weather observations and forecasts of more than 4000 airports (METAR and TAF reports).

The available stations are represented by yellow and red dots on the map.

Hover mouse over dot to see the name of the station.

Then click to see weather observations and forecasts.

To change the map : click on the green buttons with a black cross to zoom in, on the green button with a dash to zoom out, or on the green arrows for adjacent maps.


METAR-TAF: